createdAt,value
2019-05-09T00:01:26.711Z,83.92
2019-05-09T00:03:56.471Z,84.00
2019-05-09T00:06:26.275Z,83.97
2019-05-09T00:08:56.044Z,84.12
2019-05-09T00:11:25.839Z,83.96
2019-05-09T00:13:55.588Z,83.89
2019-05-09T00:16:25.277Z,83.84
2019-05-09T00:18:55.133Z,83.68
2019-05-09T00:21:30.454Z,83.65
2019-05-09T00:24:00.198Z,83.60
2019-05-09T00:26:29.964Z,83.58
2019-05-09T00:29:03.940Z,83.38
2019-05-09T00:31:58.310Z,83.36
2019-05-09T00:34:37.690Z,83.29
2019-05-09T00:37:07.437Z,83.40
2019-05-09T00:39:37.128Z,83.41
2019-05-09T00:42:06.883Z,83.41
2019-05-09T00:44:38.251Z,83.32
2019-05-09T00:47:23.953Z,83.33
2019-05-09T00:49:54.234Z,83.40
2019-05-09T00:52:24.065Z,83.34
2019-05-09T00:54:53.760Z,83.48
2019-05-09T00:57:35.863Z,83.46
2019-05-09T01:00:09.736Z,83.59
2019-05-09T01:02:39.435Z,83.50
2019-05-09T01:05:09.210Z,83.59
2019-05-09T01:07:38.948Z,83.54
2019-05-09T01:10:09.292Z,83.54
2019-05-09T01:12:39.059Z,83.39
2019-05-09T01:15:09.871Z,83.54
2019-05-09T01:17:39.684Z,83.47
2019-05-09T01:20:10.774Z,83.55
2019-05-09T01:22:40.513Z,83.64
2019-05-09T01:25:10.544Z,83.71
2019-05-09T01:27:40.311Z,83.86
2019-05-09T01:30:10.763Z,83.64
2019-05-09T01:32:59.455Z,83.53
2019-05-09T01:35:29.166Z,83.54
2019-05-09T01:37:58.863Z,83.64
2019-05-09T01:40:28.661Z,83.71
2019-05-09T01:42:58.351Z,84.13
2019-05-09T01:45:28.075Z,83.93
2019-05-09T01:47:57.804Z,84.06
2019-05-09T01:50:27.506Z,83.97
2019-05-09T01:52:57.292Z,84.25
2019-05-09T01:55:47.204Z,84.04
2019-05-09T01:58:16.906Z,83.82
2019-05-09T02:00:46.596Z,83.47
2019-05-09T02:03:16.311Z,83.16
2019-05-09T02:05:46.079Z,82.83
2019-05-09T02:08:16.573Z,82.61
2019-05-09T02:10:46.401Z,82.54
2019-05-09T02:13:16.085Z,82.43
2019-05-09T02:16:07.469Z,82.29
2019-05-09T02:18:45.056Z,82.14
2019-05-09T02:21:14.825Z,81.99
2019-05-09T02:23:44.613Z,81.86
2019-05-09T02:26:14.454Z,81.90
2019-05-09T02:28:44.211Z,81.93
2019-05-09T02:31:16.306Z,81.84
2019-05-09T02:33:45.923Z,81.73
2019-05-09T02:36:18.741Z,81.62
2019-05-09T02:38:48.687Z,81.58
2019-05-09T02:41:19.708Z,81.43
2019-05-09T02:43:50.024Z,81.39
2019-05-09T02:46:29.386Z,81.21
2019-05-09T02:48:59.463Z,80.99
2019-05-09T02:51:29.624Z,81.06
2019-05-09T02:54:00.288Z,80.77
2019-05-09T02:56:30.036Z,80.86
2019-05-09T02:59:18.949Z,80.38
2019-05-09T03:01:58.310Z,80.36
2019-05-09T03:04:28.406Z,80.38
2019-05-09T03:06:59.614Z,80.20
2019-05-09T03:09:30.841Z,80.22
2019-05-09T03:12:20.527Z,80.39
2019-05-09T03:14:32.103Z,80.09
2019-05-09T03:17:01.784Z,80.14
2019-05-09T03:19:31.498Z,80.18
2019-05-09T03:22:08.760Z,79.92
2019-05-09T03:24:39.402Z,79.61
2019-05-09T03:27:15.216Z,79.88
2019-05-09T03:29:49.141Z,79.32
2019-05-09T03:32:19.651Z,79.98
2019-05-09T03:34:49.502Z,80.17
2019-05-09T03:37:19.265Z,80.66
2019-05-09T03:39:49.159Z,81.27
2019-05-09T03:42:21.594Z,82.15
2019-05-09T03:44:50.273Z,82.32
2019-05-09T03:47:47.910Z,82.19
2019-05-09T03:50:18.420Z,82.21
2019-05-09T03:52:48.174Z,82.53
2019-05-09T03:55:22.449Z,82.20
2019-05-09T03:57:58.771Z,82.26
2019-05-09T04:00:28.591Z,82.77
2019-05-09T04:02:58.278Z,82.67
2019-05-09T04:05:28.284Z,82.44
2019-05-09T04:08:18.221Z,82.38
2019-05-09T04:10:52.379Z,82.92
2019-05-09T04:13:28.147Z,83.01
2019-05-09T04:15:58.229Z,82.62
2019-05-09T04:18:28.198Z,82.33
2019-05-09T04:20:57.857Z,81.85
2019-05-09T04:23:27.748Z,81.69
2019-05-09T04:26:07.582Z,81.32
2019-05-09T04:28:39.639Z,81.19
2019-05-09T04:31:08.594Z,81.75
2019-05-09T04:33:38.474Z,81.53
2019-05-09T04:36:08.448Z,82.38
2019-05-09T04:38:39.978Z,82.10
2019-05-09T04:41:09.644Z,82.13
2019-05-09T04:43:41.029Z,82.10
2019-05-09T04:46:12.904Z,81.56
2019-05-09T04:48:42.238Z,81.59
2019-05-09T04:54:33.097Z,81.01
2019-05-09T04:57:02.870Z,81.38
2019-05-09T04:59:32.595Z,81.42
2019-05-09T05:02:18.270Z,81.11
2019-05-09T05:04:48.110Z,81.34
2019-05-09T05:07:18.175Z,81.20
2019-05-09T05:09:48.464Z,80.97
2019-05-09T05:12:18.650Z,80.17
2019-05-09T05:14:48.507Z,81.08
2019-05-09T05:17:18.292Z,81.06
2019-05-09T05:19:48.536Z,81.23
2019-05-09T05:22:25.113Z,81.29
2019-05-09T05:25:00.210Z,81.26
2019-05-09T05:27:29.920Z,81.55
2019-05-09T05:29:59.611Z,81.17
2019-05-09T05:32:38.904Z,80.92
2019-05-09T05:35:28.424Z,80.88
2019-05-09T05:37:58.317Z,81.07
2019-05-09T05:40:32.758Z,80.84
2019-05-09T05:42:59.567Z,80.41
2019-05-09T05:45:31.180Z,81.11
2019-05-09T05:48:05.192Z,79.41
2019-05-09T05:50:34.949Z,78.98
2019-05-09T05:53:04.750Z,78.10
2019-05-09T05:55:34.466Z,77.76
2019-05-09T05:58:04.296Z,77.67
2019-05-09T06:00:33.928Z,76.35
2019-05-09T06:03:03.869Z,76.26
2019-05-09T06:05:33.559Z,75.31
2019-05-09T06:08:03.341Z,75.64
2019-05-09T06:10:33.012Z,74.99
2019-05-09T06:13:02.745Z,74.45
2019-05-09T06:15:32.437Z,72.36
2019-05-09T06:18:02.165Z,72.95
2019-05-09T06:20:31.976Z,72.62
2019-05-09T06:23:01.656Z,69.58
2019-05-09T06:25:31.400Z,67.17
2019-05-09T06:28:01.254Z,65.15
2019-05-09T06:30:32.690Z,63.50
2019-05-09T06:33:04.865Z,65.19
2019-05-09T06:35:33.894Z,64.76
2019-05-09T06:38:03.673Z,64.07
2019-05-09T06:40:34.375Z,61.77
2019-05-09T06:43:18.387Z,54.54
2019-05-09T06:46:12.731Z,53.84
2019-05-09T06:48:42.477Z,54.39
2019-05-09T06:51:12.316Z,57.57
2019-05-09T06:53:42.075Z,57.26
2019-05-09T06:59:38.950Z,61.06
2019-05-09T07:02:14.524Z,61.67
2019-05-09T07:04:47.654Z,62.80
2019-05-09T07:07:23.938Z,61.91
2019-05-09T07:09:58.603Z,61.49
2019-05-09T07:12:28.301Z,59.03
2019-05-09T07:14:58.338Z,56.53
2019-05-09T07:17:31.715Z,54.97
2019-05-09T07:20:00.758Z,50.61
2019-05-09T07:22:35.212Z,48.49
2019-05-09T07:25:20.374Z,51.12
2019-05-09T07:27:50.112Z,47.75
2019-05-09T07:30:29.147Z,47.18
2019-05-09T07:33:11.004Z,47.47
2019-05-09T07:35:41.673Z,50.98
2019-05-09T07:38:11.360Z,54.70
2019-05-09T07:40:41.077Z,56.59
2019-05-09T07:43:10.762Z,57.49
2019-05-09T07:45:42.418Z,58.99
2019-05-09T07:48:12.120Z,59.94
2019-05-09T07:50:41.809Z,60.62
2019-05-09T07:53:11.478Z,57.48
2019-05-09T07:55:41.197Z,58.01
2019-05-09T07:58:14.241Z,54.74
2019-05-09T08:00:42.355Z,51.86
2019-05-09T08:03:13.239Z,49.04
2019-05-09T08:05:43.179Z,45.67
2019-05-09T08:08:18.600Z,44.27
2019-05-09T08:10:48.288Z,44.27
2019-05-09T08:13:21.349Z,47.65
2019-05-09T08:15:49.336Z,49.45
2019-05-09T08:18:18.992Z,50.91
2019-05-09T08:20:48.731Z,51.63
2019-05-09T08:23:18.442Z,53.07
2019-05-09T08:25:48.561Z,54.10
2019-05-09T08:28:20.133Z,54.42
2019-05-09T08:30:50.003Z,55.07
2019-05-09T08:33:20.736Z,54.73
2019-05-09T08:35:52.603Z,55.56
2019-05-09T08:38:21.993Z,53.87
2019-05-09T08:41:09.195Z,54.81
2019-05-09T08:43:41.050Z,55.48
2019-05-09T08:46:12.109Z,54.67
2019-05-09T08:48:42.305Z,54.20
2019-05-09T08:51:23.345Z,55.07
2019-05-09T08:53:53.106Z,54.69
2019-05-09T08:56:22.847Z,54.80
2019-05-09T08:58:52.589Z,54.61
2019-05-09T09:01:31.079Z,55.63
2019-05-09T09:03:53.849Z,55.59
2019-05-09T09:06:23.565Z,54.83
2019-05-09T09:08:53.232Z,54.76
2019-05-09T09:11:22.979Z,54.65
2019-05-09T09:13:52.736Z,54.52
2019-05-09T09:16:22.726Z,54.30
2019-05-09T09:18:53.599Z,53.07
2019-05-09T09:21:23.293Z,53.72
2019-05-09T09:23:52.946Z,53.59
2019-05-09T09:26:22.685Z,53.12
2019-05-09T09:28:52.429Z,52.82
2019-05-09T09:31:22.180Z,52.95
2019-05-09T09:33:51.877Z,52.09
2019-05-09T09:36:21.766Z,51.84
2019-05-09T09:38:52.419Z,51.43
2019-05-09T09:41:22.101Z,51.46
2019-05-09T09:43:51.838Z,51.44
2019-05-09T09:46:21.586Z,51.84
2019-05-09T09:48:51.277Z,51.48
2019-05-09T09:51:20.972Z,49.69
2019-05-09T09:53:50.680Z,47.87
2019-05-09T09:56:22.627Z,41.74
2019-05-09T09:59:01.627Z,40.18
2019-05-09T10:01:33.378Z,42.73
2019-05-09T10:04:19.857Z,38.85
2019-05-09T10:06:44.331Z,41.90
2019-05-09T10:09:14.065Z,42.75
2019-05-09T10:11:43.839Z,44.70
2019-05-09T10:14:18.748Z,42.26
2019-05-09T10:17:03.533Z,43.31
2019-05-09T10:19:50.662Z,42.96
2019-05-09T10:22:24.516Z,41.79
2019-05-09T10:24:53.322Z,41.79
2019-05-09T10:27:23.088Z,38.79
2019-05-09T10:29:52.876Z,37.38
2019-05-09T10:32:22.592Z,33.08
2019-05-09T10:34:52.282Z,32.39
2019-05-09T10:37:21.981Z,28.48
2019-05-09T10:39:51.740Z,30.76
2019-05-09T10:42:31.782Z,31.83
2019-05-09T10:45:29.280Z,32.57
2019-05-09T10:47:59.037Z,35.86
2019-05-09T10:50:34.085Z,34.91
2019-05-09T10:53:00.156Z,33.93
2019-05-09T10:55:29.823Z,34.23
2019-05-09T10:58:02.372Z,36.18
2019-05-09T11:00:30.998Z,37.25
2019-05-09T11:03:00.706Z,38.82
2019-05-09T11:05:30.394Z,42.15
2019-05-09T11:08:00.197Z,43.16
2019-05-09T11:10:32.858Z,43.83
2019-05-09T11:13:03.799Z,45.80
2019-05-09T11:15:33.532Z,48.41
2019-05-09T11:18:03.302Z,47.54
2019-05-09T11:20:33.035Z,50.63
2019-05-09T11:23:02.757Z,50.75
2019-05-09T11:25:32.529Z,51.06
2019-05-09T11:28:10.861Z,51.77
2019-05-09T11:30:33.985Z,51.20
2019-05-09T11:33:03.676Z,54.13
2019-05-09T11:35:33.455Z,54.55
2019-05-09T11:38:03.154Z,58.72
2019-05-09T11:40:32.869Z,58.60
2019-05-09T11:43:02.554Z,61.38
2019-05-09T11:45:33.366Z,62.57
2019-05-09T11:48:03.122Z,64.66
2019-05-09T11:50:32.888Z,62.49
2019-05-09T11:53:02.642Z,62.25
2019-05-09T11:55:35.934Z,63.24
2019-05-09T11:58:03.741Z,63.57
2019-05-09T12:00:33.433Z,60.34
2019-05-09T12:03:03.148Z,58.89
2019-05-09T12:05:32.906Z,58.22
2019-05-09T12:08:02.597Z,59.86
2019-05-09T12:10:33.459Z,58.34
2019-05-09T12:13:03.164Z,60.68
2019-05-09T12:15:32.838Z,65.71
2019-05-09T12:18:08.119Z,65.85
2019-05-09T12:20:34.013Z,63.75
2019-05-09T12:23:04.718Z,66.55
2019-05-09T12:25:38.609Z,64.20
2019-05-09T12:28:08.638Z,65.48
2019-05-09T12:30:38.398Z,66.08
2019-05-09T12:33:08.728Z,64.91
2019-05-09T12:35:38.710Z,65.75
2019-05-09T12:38:08.550Z,64.03
2019-05-09T12:40:38.901Z,64.42
2019-05-09T12:43:09.252Z,61.45
2019-05-09T12:45:38.991Z,61.33
2019-05-09T12:48:15.108Z,60.50
2019-05-09T12:50:40.161Z,59.06
2019-05-09T12:53:09.837Z,55.75
2019-05-09T12:55:39.520Z,54.77
2019-05-09T12:58:27.853Z,57.24
2019-05-09T13:00:59.293Z,52.52
2019-05-09T13:03:29.848Z,54.44
2019-05-09T13:05:59.621Z,49.93
2019-05-09T13:08:29.337Z,47.77
2019-05-09T13:11:02.323Z,48.04
2019-05-09T13:13:32.352Z,49.17
2019-05-09T13:16:23.873Z,49.61
2019-05-09T13:19:07.200Z,47.58
2019-05-09T13:21:38.976Z,50.51
2019-05-09T13:24:08.715Z,45.59
2019-05-09T13:26:40.825Z,46.90
2019-05-09T13:29:10.513Z,44.32
2019-05-09T13:31:40.222Z,46.13
2019-05-09T13:34:09.889Z,46.30
2019-05-09T13:36:39.639Z,46.83
2019-05-09T13:39:10.724Z,50.24
2019-05-09T13:41:40.759Z,48.63
2019-05-09T13:44:13.527Z,49.13
2019-05-09T13:46:41.873Z,46.42
2019-05-09T13:49:15.392Z,47.85
2019-05-09T13:51:51.031Z,50.92
2019-05-09T13:54:15.582Z,47.97
2019-05-09T13:56:50.493Z,47.54
2019-05-09T13:59:19.241Z,48.65
2019-05-09T14:01:48.995Z,47.70
2019-05-09T14:04:18.739Z,46.18
2019-05-09T14:06:48.866Z,46.18
2019-05-09T14:09:19.978Z,46.17
2019-05-09T14:11:49.901Z,43.74
2019-05-09T14:14:19.595Z,42.35
2019-05-09T14:16:49.366Z,40.93
2019-05-09T14:19:39.614Z,42.12
2019-05-09T14:21:50.464Z,41.86
2019-05-09T14:24:20.169Z,42.01
2019-05-09T14:26:49.965Z,39.31
2019-05-09T14:29:20.753Z,38.86
2019-05-09T14:31:50.591Z,38.83
2019-05-09T14:34:20.307Z,41.56
2019-05-09T14:36:51.097Z,40.79
2019-05-09T14:39:20.821Z,40.70
2019-05-09T14:41:50.493Z,40.70
2019-05-09T14:44:20.180Z,40.67
2019-05-09T14:46:50.270Z,40.33
2019-05-09T14:49:19.968Z,39.74
2019-05-09T14:51:50.187Z,42.07
2019-05-09T14:54:20.196Z,42.36
2019-05-09T14:56:49.933Z,40.14
2019-05-09T14:59:19.579Z,40.50
2019-05-09T15:01:49.734Z,43.33
2019-05-09T15:04:19.518Z,40.80
2019-05-09T15:06:49.325Z,40.52
2019-05-09T15:09:19.000Z,41.03
2019-05-09T15:11:48.858Z,42.49
2019-05-09T15:14:18.529Z,43.54
2019-05-09T15:16:49.373Z,41.84
2019-05-09T15:19:19.115Z,40.77
2019-05-09T15:21:49.084Z,41.72
2019-05-09T15:24:19.469Z,40.21
2019-05-09T15:26:49.415Z,42.38
2019-05-09T15:29:19.171Z,40.65
2019-05-09T15:31:54.571Z,40.58
2019-05-09T15:34:20.388Z,39.95
2019-05-09T15:36:50.160Z,39.91
2019-05-09T15:39:19.881Z,39.38
2019-05-09T15:41:49.727Z,37.60
2019-05-09T15:44:19.468Z,40.18
2019-05-09T15:46:56.698Z,41.64
2019-05-09T15:49:28.528Z,42.89
2019-05-09T15:51:59.250Z,42.57
2019-05-09T15:54:29.525Z,40.74
2019-05-09T15:56:59.473Z,43.92
2019-05-09T15:59:29.143Z,42.51
2019-05-09T16:01:58.968Z,43.42
2019-05-09T16:04:28.712Z,41.34
2019-05-09T16:06:58.420Z,41.28
2019-05-09T16:09:28.712Z,39.01
2019-05-09T16:11:58.496Z,39.74
2019-05-09T16:14:28.195Z,39.97
2019-05-09T16:16:57.872Z,39.97
2019-05-09T16:19:27.760Z,40.29
2019-05-09T16:21:57.562Z,41.47
2019-05-09T16:24:28.014Z,42.58
2019-05-09T16:26:58.164Z,42.02
2019-05-09T16:29:29.287Z,40.98
2019-05-09T16:31:59.377Z,43.23
2019-05-09T16:34:29.083Z,41.87
2019-05-09T16:36:58.761Z,43.31
2019-05-09T16:39:28.470Z,43.09
2019-05-09T16:41:59.192Z,43.09
2019-05-09T16:44:29.216Z,43.69
2019-05-09T16:46:59.072Z,43.49
2019-05-09T16:49:29.431Z,43.13
2019-05-09T16:51:59.418Z,43.36
2019-05-09T16:54:33.171Z,43.95
2019-05-09T16:57:02.899Z,43.39
2019-05-09T16:59:32.908Z,43.33
2019-05-09T17:02:17.846Z,43.37
2019-05-09T17:04:34.112Z,44.36
2019-05-09T17:07:03.989Z,43.84
2019-05-09T17:09:37.754Z,43.58
2019-05-09T17:12:08.347Z,43.57
2019-05-09T17:14:38.228Z,43.42
2019-05-09T17:17:08.502Z,45.28
2019-05-09T17:19:38.173Z,44.30
2019-05-09T17:22:18.345Z,44.36
2019-05-09T17:24:49.707Z,45.20
2019-05-09T17:27:19.548Z,45.41
2019-05-09T17:29:49.801Z,46.23
2019-05-09T17:32:19.776Z,46.68
2019-05-09T17:34:49.495Z,46.52
2019-05-09T17:37:19.169Z,46.71
2019-05-09T17:39:49.013Z,46.65
2019-05-09T17:42:18.775Z,47.68
2019-05-09T17:44:48.978Z,46.78
2019-05-09T17:47:19.765Z,46.92
2019-05-09T17:49:49.609Z,47.81
2019-05-09T17:52:19.326Z,48.04
2019-05-09T17:54:49.143Z,46.97
2019-05-09T17:57:19.145Z,48.70
2019-05-09T17:59:49.119Z,47.35
2019-05-09T18:02:18.921Z,46.92
2019-05-09T18:07:59.084Z,48.28
2019-05-09T18:10:28.897Z,49.42
2019-05-09T18:12:58.936Z,48.61
2019-05-09T18:15:43.450Z,51.09
2019-05-09T18:18:13.827Z,48.76
2019-05-09T18:20:43.765Z,49.20
2019-05-09T18:23:13.734Z,48.51
2019-05-09T18:25:43.589Z,49.73
2019-05-09T18:28:13.535Z,48.72
2019-05-09T18:30:43.339Z,50.87
2019-05-09T18:33:34.950Z,50.11
2019-05-09T18:36:04.902Z,49.75
2019-05-09T18:38:35.320Z,48.99
2019-05-09T18:41:07.956Z,48.98
2019-05-09T18:43:36.676Z,48.76
2019-05-09T18:46:08.368Z,49.72
2019-05-09T18:48:38.387Z,49.52
2019-05-09T18:51:08.192Z,49.65
2019-05-09T18:53:37.970Z,49.35
2019-05-09T18:56:07.841Z,49.38
2019-05-09T18:58:37.881Z,49.02
2019-05-09T19:01:07.672Z,49.34
2019-05-09T19:03:37.417Z,48.91
2019-05-09T19:06:07.184Z,48.28
2019-05-09T19:08:36.966Z,50.11
2019-05-09T19:11:06.944Z,54.06
2019-05-09T19:13:36.635Z,54.34
2019-05-09T19:16:25.361Z,55.61
2019-05-09T19:19:12.750Z,55.50
2019-05-09T19:21:49.013Z,56.63
2019-05-09T19:24:18.742Z,56.27
2019-05-09T19:30:09.464Z,56.96
2019-05-09T19:47:39.774Z,60.21
2019-05-09T19:50:11.249Z,61.50
2019-05-09T19:52:41.110Z,62.38
2019-05-09T19:55:11.057Z,62.48
2019-05-09T19:57:49.812Z,63.34
2019-05-09T20:00:19.971Z,64.74
2019-05-09T20:02:49.784Z,65.91
2019-05-09T20:05:19.888Z,66.88
2019-05-09T20:07:49.688Z,67.12
2019-05-09T20:10:36.683Z,67.48
2019-05-09T20:13:17.331Z,67.47
2019-05-09T20:16:01.957Z,66.94
2019-05-09T20:18:32.786Z,68.01
2019-05-09T20:21:02.548Z,66.95
2019-05-09T20:23:32.312Z,66.94
2019-05-09T20:26:20.911Z,67.22
2019-05-09T20:28:56.668Z,67.07
2019-05-09T20:31:26.392Z,66.75
2019-05-09T20:33:56.104Z,67.95
2019-05-09T20:36:26.096Z,68.03
2019-05-09T20:38:56.046Z,67.38
2019-05-09T20:41:26.034Z,67.28
2019-05-09T20:43:55.909Z,67.43
2019-05-09T20:46:25.950Z,67.92
2019-05-09T20:48:55.881Z,66.80
2019-05-09T20:51:26.752Z,66.05
2019-05-09T20:53:56.683Z,65.89
2019-05-09T20:59:43.100Z,64.12
2019-05-09T21:02:13.067Z,63.79
2019-05-09T21:04:43.046Z,64.63
2019-05-09T21:07:12.999Z,64.46
2019-05-09T21:09:42.882Z,63.99
2019-05-09T21:12:12.836Z,67.00
2019-05-09T21:14:42.710Z,67.59
2019-05-09T21:17:12.696Z,67.98
2019-05-09T21:19:42.681Z,66.66
2019-05-09T21:22:12.711Z,65.57
2019-05-09T21:24:42.689Z,66.46
2019-05-09T21:27:12.609Z,66.16
2019-05-09T21:29:42.456Z,64.92
2019-05-09T21:32:12.362Z,65.32
2019-05-09T21:34:42.085Z,66.20
2019-05-09T21:37:13.896Z,66.00
2019-05-09T21:39:43.359Z,65.01
2019-05-09T21:42:13.035Z,66.98
2019-05-09T21:44:42.812Z,67.51
2019-05-09T21:47:12.463Z,68.50
2019-05-09T21:49:42.203Z,68.96
2019-05-09T21:52:11.926Z,69.35
2019-05-09T21:54:41.703Z,68.41
2019-05-09T21:57:13.882Z,68.40
2019-05-09T21:59:43.690Z,68.94
2019-05-09T22:02:14.271Z,68.71
2019-05-09T22:04:44.050Z,69.24
2019-05-09T22:07:13.887Z,68.87
2019-05-09T22:09:43.696Z,69.10
2019-05-09T22:12:13.441Z,70.04
2019-05-09T22:14:43.298Z,70.03
2019-05-09T22:17:17.003Z,70.80
2019-05-09T22:19:46.827Z,70.57
2019-05-09T22:22:16.530Z,73.67
2019-05-09T22:24:46.214Z,73.53
2019-05-09T22:27:16.907Z,72.67
2019-05-09T22:29:46.631Z,71.79
2019-05-09T22:32:16.290Z,72.03
2019-05-09T22:34:46.072Z,72.48
2019-05-09T22:37:15.760Z,73.49
2019-05-09T22:39:45.446Z,74.30
2019-05-09T22:42:16.327Z,74.42
2019-05-09T22:44:46.069Z,74.19
2019-05-09T22:47:15.750Z,74.60
2019-05-09T22:49:45.442Z,75.11
2019-05-09T22:52:15.135Z,75.44
2019-05-09T22:54:44.782Z,75.64
2019-05-09T22:57:14.548Z,76.07
2019-05-09T22:59:45.046Z,76.58
2019-05-09T23:02:14.815Z,76.23
2019-05-09T23:04:44.571Z,76.47
2019-05-09T23:07:14.288Z,76.73
2019-05-09T23:09:44.059Z,77.08
2019-05-09T23:12:13.822Z,77.41
2019-05-09T23:14:43.579Z,77.85
2019-05-09T23:17:13.272Z,77.65
2019-05-09T23:19:43.027Z,77.94
2019-05-09T23:22:12.776Z,78.35
2019-05-09T23:24:44.623Z,78.52
2019-05-09T23:27:16.359Z,78.38
2019-05-09T23:29:46.094Z,78.19
2019-05-09T23:32:23.256Z,77.39
2019-05-09T23:34:52.973Z,78.02
2019-05-09T23:37:22.711Z,78.34
2019-05-09T23:39:52.681Z,77.70
2019-05-09T23:42:22.418Z,76.98
2019-05-09T23:44:52.113Z,77.36
2019-05-09T23:47:21.911Z,76.96
2019-05-09T23:49:51.591Z,77.31
2019-05-09T23:52:21.358Z,77.60
2019-05-09T23:55:08.590Z,77.05
2019-05-09T23:57:55.820Z,76.73
